AirNav   Phillips 66 Aviation Fuel
 
 651 users online  

9N1 Vansant Airport
Erwinna, Pennsylvania, USA

GOING TO ERWINNA?


FAA INFORMATION EFFECTIVE 19 JULY 2018

Location

FAA Identifier: 9N1
Lat/Long: 40-29-03.3710N / 075-05-58.6180W
40-29.056183N / 075-05.976967W
40.4842697 / -75.0996161
(estimated)
Elevation: 390 ft. / 119 m (estimated)
Variation: 12W (1985)
From city: 2 miles SW of ERWINNA, PA
Time zone: UTC -4 (UTC -5 during Standard Time)
Zip code: 18920

Airport Operations

Airport use: Open to the public
Activation date: 10/1961
Control tower: no
ARTCC: NEW YORK CENTER
FSS: WILLIAMSPORT FLIGHT SERVICE STATION
NOTAMs facility: IPT (NOTAM-D service available)
Attendance: 0830-DARK
Pattern altitude: 1190 ft. MSL
GLIDER TFC PAT 800 FT AGL; POWER PLANE 1000 FT AGL. POWER PLANE TFC REMAIN OUTSIDE GLIDER TFC PAT & AVOID FLYING DIRECTLY OVER ARPT.
Wind indicator: yes
Segmented circle: no

Airport Communications

CTAF/UNICOM: 122.8
WX ASOS at DYL (9 nm S): 118.875 (215-345-0392)
WX AWOS-3 at CKZ (10 nm SW): 126.325 (215-257-7291)
WX AWOS-3 at UKT (13 nm W): 119.475 (215-538-7610)
WX ASOS at TTN (18 nm SE): 126.775 (609-538-8690)
WX AWOS-3 at XLL (18 nm W): 127.875 (610-231-3111)
WX ASOS at ABE (19 nm NW): PHONE 610-266-3579

Nearby radio navigation aids

VOR radial/distance  VOR name  Freq  Var
ARDr338/16.4YARDLEY VOR/DME108.2010W
SBJr260/17.4SOLBERG VOR/DME112.9010W
FJCr142/21.8ALLENTOWN VORTAC117.5010W
BWZr225/22.7BROADWAY VOR/DME114.2011W
PNEr000/(24.5)NORTH PHILADELPHIA VOR112.0010W
PTWr062/26.3POTTSTOWN VORTAC116.5009W
ETXr111/27.3EAST TEXAS VOR/DME110.2009W
RBVr311/32.4ROBBINSVILLE VORTAC113.8010W
STWr210/32.4STILLWATER VOR/DME109.6011W
GXUr333/36.6MC GUIRE VORTAC110.6012W

 
NDB name  Hdg/Dist  Freq  Var  ID
AMBLER034/23.127512WING .. -. --.
CHATHAM256/34.225413WCAT -.-. .- -

Airport Services

Fuel available: 100LL
Parking: hangars and tiedowns
Airframe service: MAJOR
Powerplant service: MAJOR
Bottled oxygen: NONE
Bulk oxygen: NONE

Runway Information

Runway 7/25

Dimensions: 3058 x 120 ft. / 932 x 37 m
Surface: turf, in good condition
Runway edge markings: RY07/25 MKD WITH WHITE TIRES; DSPLCD THLD MKD WITH WHITE TIRES.
RUNWAY 7  RUNWAY 25
Traffic pattern: leftleft
Displaced threshold: 365 ft.no
Obstructions: 15 ft. road, 54 ft. from runway, 3:1 slope to clear
RWY 07 APCH RATIO 27:1 TO DSPLCD THLD.
37 ft. tree, 668 ft. from runway, 11 ft. right of centerline, 18:1 slope to clear

Runway 5G/23G

Dimensions: 1340 x 200 ft. / 408 x 61 m
Surface: turf, in good condition
RUNWAY 5G  RUNWAY 23G
Traffic pattern: leftleft

Airport Ownership and Management from official FAA records

Ownership: Publicly-owned
Owner: BUCKS COUNTY AIRPORT AUTHORITY
P.O. BOX 1185, 3879 OLD EASTON ROAD
DOYLESTOWN, PA 18901
Phone 215-345-1970
Manager: GEORGE TAYLOR
516 CAFFERTY RD PO BOX 176
ERWINNA, PA 18920
Phone 610-847-8494

Airport Operational Statistics

Aircraft based on the field: 52
Single engine airplanes: 40
Gliders airplanes: 12
    
Aircraft operations: avg 87/week *
89% local general aviation
11% transient general aviation
<1% military
* for 12-month period ending 01 May 2018

Additional Remarks

HEAVY GLIDER TFC.
ARPT CLSD TO TRANSIENT TRAFFIC DEC THRU APR.
GLIDERS OCNLLY USE POWER PLANE RWY FOR LNDG TO THE WEST.
RWY 23 GLIDERS ONLY.
RWY 05 LANDINGS AND TAKEOFFS PROHIBITED.
DEER ON AND INVOF ARPT.
ARPT CLSD DUSK TO DAWN.
FOR CD CTC ABE APCH AT 800-728-6322.

Instrument Procedures

There are no published instrument procedures at 9N1.

Some nearby airports with instrument procedures:

N85 - Alexandria Airport (7 nm NE)
N40 - Sky Manor Airport (7 nm NE)
KDYL - Doylestown Airport (9 nm S)
KCKZ - Pennridge Airport (10 nm SW)
KUKT - Quakertown Airport (13 nm W)
N43 - Braden Airpark (17 nm NW)
N51 - Solberg-Hunterdon Airport (18 nm E)
KTTN - Trenton Mercer Airport (18 nm SE)
KXLL - Allentown Queen City Municipal Airport (18 nm W)
KABE - Lehigh Valley International Airport (19 nm NW)
 
Loc | Ops | Rwys | IFR | FBO | Links
Com | Nav | Svcs | Stats | Notes


 
Area around 9N1 (Vansant Airport)
 
Road maps at: MapQuest Bing Google
 
Aerial photo
WARNING: Photo may not be current or correct
Aerial photo of 9N1 (Vansant Airport)
Photo by David Newcomer
Photo taken 04-Jul-2017
looking west from 2,500' altitude.

Do you have a better or more recent aerial photo of Vansant Airport that you would like to share? If so, please send us your photo.

 
Sectional chart

 
Airport distance calculator
Flying to Vansant Airport? Find the distance to fly.

From to 9N1

Sunrise and sunset
Times for 21-Jul-2018
 Local
(UTC-4)
 Zulu
(UTC)
Morning civil twilight05:1709:17
Sunrise05:4909:49
Sunset20:2500:25
Evening civil twilight20:5700:57

Current date and time
Zulu (UTC)  21-Jul-2018 04:47:38
Local (UTC-4)  21-Jul-2018 00:47:38
 
METAR
KDYL 
9nm S 
210354Z AUTO 00000KT 10SM CLR 19/16 A3010 RMK AO2 SLP189 T01940156
KCKZ 
10nm SW 
210435Z AUTO 00000KT 10SM FEW028 18/17 A3012 RMK AO2
KTTN 
18nm SE 
ASOS 133.70 609-538-8690
210353Z AUTO 09004KT 10SM CLR 19/16 A3010 RMK AO2 SLP185 T01940156
KXLL 
18nm W 
210435Z AUTO 12006KT 10SM CLR 20/15 A3011 RMK AO2
KABE 
19nm NW 
210351Z 13005KT 10SM CLR 22/14 A3010 RMK AO2 SLP189 T02170144
TAF
KTTN 
18nm SE 
201739Z 2018/2118 13008KT P6SM FEW060 SCT250 FM210600 11004KT P6SM FEW090 BKN250 FM211300 10009KT P6SM SCT060 OVC120 FM211700 09011G19KT 6SM -SHRA OVC050
KABE 
19nm NW 
201739Z 2018/2118 14006KT P6SM SCT060 SCT250 FM210400 VRB02KT P6SM BKN250 FM211300 08008KT P6SM SCT060 BKN150 FM211700 09012KT P6SM VCSH OVC040
NOTAMs
Click for the latest NOTAMs
NOTAMs are issued by the DoD/FAA and will open in a separate window not controlled by AirNav.

 

 
 

FBO, Fuel Providers, and Aircraft Ground Support

  
 Business Name 
 
 Contact 
 
 Services / Description 
 
Fuel Prices
 
Comments
  
The Bird of Paradise at Van Sant 610-847-1119
251-609-2043
[web site]
[email]
Airport management, Aviation fuel, Aircraft ground handling, Aircraft parking (ramp or tiedown), Passenger terminal and lounge, Flight training, ...

More info about The Bird of Paradise at Van Sant
Ascent
100LL
SS $5.50 
 Updated 19-Jul-2018
 
   1 read write
SS=Self service
Update Fuel Prices
 

Would you like to see your business listed on this page?

 If your business provides an interesting product or service to pilots, flight crews, aircraft, or users of the Vansant Airport, you should consider listing it here.  To start the listing process, click on the button below
 
Add a business
 

Other Pages about Vansant Airport

vansantairport.com
 
Update a link
 
Copyright © AirNav, LLC. All rights reserved. Privacy Policy  Contact